Time;durP1;ratioP1;P1;durP2;ratioP2;P2;SDS_P1;SDS_P2;PMS_P1;PMS_P2;Temp;Humidity;BMP_temperature;BMP_pressure;BME280_temperature;BME280_humidity;BME280_pressure;Samples;Min_cycle;Max_cycle;Signal;HPM_P1;HPM_P2
2022/03/24 00:00:38;;;;;;;45.90;29.88;;;7.20;99.90;;;;;;5063599;28;20047;-92
2022/03/24 00:03:05;;;;;;;49.05;30.23;;;7.10;99.90;;;;;;5079236;28;20552;-92
2022/03/24 00:05:34;;;;;;;42.75;28.98;;;7.40;99.90;;;;;;5080400;28;20471;-91
2022/03/24 00:08:01;;;;;;;45.63;31.30;;;8.90;99.90;;;;;;5080447;28;20071;-92
2022/03/24 00:10:26;;;;;;;45.85;32.40;;;7.20;99.90;;;;;;5062867;28;20105;-90
2022/03/24 00:12:52;;;;;;;46.58;31.08;;;7.20;99.90;;;;;;5062932;28;20445;-88
2022/03/24 00:15:19;;;;;;;50.05;33.85;;;7.00;99.90;;;;;;5061887;28;20253;-91
2022/03/24 00:17:45;;;;;;;45.20;31.85;;;8.30;99.90;;;;;;5061422;28;20044;-91
2022/03/24 00:20:16;;;;;;;53.03;34.60;;;7.20;99.90;;;;;;5062078;28;20051;-92
2022/03/24 00:22:42;;;;;;;46.50;33.13;;;6.90;99.90;;;;;;5062362;28;20383;-92
2022/03/24 00:25:10;;;;;;;48.67;32.53;;;8.70;99.90;;;;;;5060909;28;20059;-91
2022/03/24 00:27:36;;;;;;;50.80;34.10;;;6.90;99.90;;;;;;5062020;28;20048;-92
2022/03/24 00:30:03;;;;;;;51.13;34.15;;;6.80;99.90;;;;;;5061676;28;20379;-92
2022/03/24 00:32:28;;;;;;;44.75;33.30;;;6.80;99.90;;;;;;5061130;28;20088;-92
2022/03/24 00:34:55;;;;;;;52.70;34.97;;;6.70;99.90;;;;;;5061922;28;20089;-91
2022/03/24 00:37:20;;;;;;;49.22;33.28;;;6.70;99.90;;;;;;5061877;28;20128;-91
2022/03/24 00:39:48;;;;;;;51.55;32.70;;;6.90;99.90;;;;;;5061697;28;20542;-92
2022/03/24 00:42:13;;;;;;;51.83;33.75;;;6.70;99.90;;;;;;5062067;28;20044;-91
2022/03/24 00:44:42;;;;;;;53.58;36.35;;;8.00;99.90;;;;;;5044204;28;20086;-92
2022/03/24 00:47:10;;;;;;;47.72;33.60;;;5.80;99.90;;;;;;5061808;28;20040;-91
2022/03/24 00:49:36;;;;;;;49.65;35.13;;;8.20;99.90;;;;;;5060801;28;20048;-88
2022/03/24 00:52:03;;;;;;;53.67;35.70;;;8.80;99.90;;;;;;5060899;28;20059;-91
2022/03/24 00:54:29;;;;;;;43.67;31.38;;;5.90;99.90;;;;;;5061742;28;20502;-91
2022/03/24 00:56:55;;;;;;;51.83;35.90;;;6.50;99.90;;;;;;5045271;28;20047;-92
2022/03/24 00:59:22;;;;;;;50.92;33.55;;;9.20;99.90;;;;;;5061414;28;20483;-92
2022/03/24 01:01:48;;;;;;;47.85;33.08;;;6.30;99.90;;;;;;5045393;28;20040;-92
2022/03/24 01:04:14;;;;;;;46.90;34.75;;;6.90;99.90;;;;;;5061581;28;20050;-92
2022/03/24 01:06:41;;;;;;;54.55;36.45;;;8.40;99.90;;;;;;5028166;28;20095;-92
2022/03/24 01:09:06;;;;;;;57.83;37.10;;;6.20;99.90;;;;;;5060916;28;20083;-91
2022/03/24 01:11:32;;;;;;;51.50;37.45;;;8.20;99.90;;;;;;5061373;28;20117;-92
2022/03/24 01:13:58;;;;;;;50.05;36.35;;;6.90;99.90;;;;;;5061702;28;20123;-92
2022/03/24 01:16:24;;;;;;;54.10;35.83;;;7.00;99.90;;;;;;5017015;28;1266892;-92
2022/03/24 01:18:51;;;;;;;53.67;35.67;;;4.20;99.90;;;;;;5062617;28;20048;-92
2022/03/24 01:21:17;;;;;;;50.50;33.63;;;8.10;99.90;;;;;;5062113;28;20051;-92
2022/03/24 01:23:45;;;;;;;55.35;35.40;;;6.00;99.90;;;;;;5062347;28;20063;-89
2022/03/24 01:26:14;;;;;;;54.90;34.70;;;6.00;99.90;;;;;;5061595;28;20148;-91
2022/03/24 01:28:41;;;;;;;51.97;35.28;;;6.30;99.90;;;;;;5061000;28;20055;-92
2022/03/24 01:31:10;;;;;;;53.83;35.58;;;6.30;99.90;;;;;;5061792;28;20054;-92
2022/03/24 01:33:38;;;;;;;52.97;37.28;;;6.10;99.90;;;;;;5045258;28;20537;-92
2022/03/24 01:36:09;;;;;;;53.60;36.28;;;8.50;99.90;;;;;;5078536;28;20563;-91
2022/03/24 01:38:35;;;;;;;60.67;39.65;;;7.70;99.90;;;;;;5062014;28;20109;-92
2022/03/24 01:41:04;;;;;;;60.30;39.85;;;6.20;99.90;;;;;;5061835;28;20048;-92
2022/03/24 01:43:31;;;;;;;66.00;40.45;;;6.10;99.90;;;;;;5044336;28;20071;-91
2022/03/24 01:45:56;;;;;;;61.70;38.13;;;7.80;99.90;;;;;;5061023;28;20559;-92
2022/03/24 01:48:22;;;;;;;57.88;38.45;;;7.90;99.90;;;;;;5045357;28;20039;-92
2022/03/24 01:50:48;;;;;;;54.63;37.22;;;5.00;99.90;;;;;;5078491;28;20097;-92
2022/03/24 01:53:14;;;;;;;56.85;38.35;;;7.50;99.90;;;;;;5061572;28;20040;-91
2022/03/24 01:55:45;;;;;;;54.90;37.70;;;4.50;99.90;;;;;;5061711;28;20051;-92
2022/03/24 01:58:12;;;;;;;59.65;38.60;;;5.80;99.90;;;;;;5077948;28;20105;-91
2022/03/24 02:00:38;;;;;;;56.15;37.42;;;6.20;99.90;;;;;;5061894;28;20048;-92
2022/03/24 02:03:07;;;;;;;54.08;37.30;;;7.70;99.90;;;;;;5062216;28;20044;-91
2022/03/24 02:05:35;;;;;;;57.47;38.35;;;5.70;99.90;;;;;;5061211;28;20048;-89
2022/03/24 02:08:03;;;;;;;57.35;38.60;;;6.00;99.90;;;;;;5060528;28;20048;-92
2022/03/24 02:10:31;;;;;;;54.47;37.75;;;5.60;99.90;;;;;;5077744;28;20048;-92
2022/03/24 02:12:57;;;;;;;62.10;40.65;;;5.70;99.90;;;;;;5061110;28;20063;-92
2022/03/24 02:15:24;;;;;;;60.50;41.63;;;7.40;99.90;;;;;;5078125;28;20036;-92
2022/03/24 02:17:52;;;;;;;60.17;40.20;;;5.40;99.90;;;;;;5045056;28;20118;-92
2022/03/24 02:20:19;;;;;;;54.97;39.13;;;5.70;99.90;;;;;;5061694;28;20043;-92
2022/03/24 02:22:46;;;;;;;61.42;42.83;;;5.90;99.90;;;;;;5044897;28;20048;-92
2022/03/24 02:25:12;;;;;;;58.53;37.55;;;5.60;99.90;;;;;;5060240;28;20050;-91
2022/03/24 02:27:39;;;;;;;58.03;40.88;;;5.30;99.90;;;;;;5060703;28;20040;-92
2022/03/24 02:30:05;;;;;;;57.90;41.83;;;5.00;99.90;;;;;;5060751;28;20047;-91
2022/03/24 02:32:34;;;;;;;55.65;39.35;;;5.20;99.90;;;;;;5077721;28;20554;-92
2022/03/24 02:35:00;;;;;;;57.55;40.05;;;6.10;99.90;;;;;;5043801;28;20044;-92
2022/03/24 02:37:28;;;;;;;59.05;40.20;;;7.40;99.90;;;;;;5043620;28;20490;-92
2022/03/24 02:39:56;;;;;;;63.80;44.17;;;5.50;99.90;;;;;;5060609;28;20040;-92
2022/03/24 02:42:25;;;;;;;65.95;43.90;;;4.20;99.90;;;;;;5060548;28;20047;-90
2022/03/24 02:44:55;;;;;;;64.65;43.17;;;5.70;99.90;;;;;;5060294;28;20048;-89
2022/03/24 02:47:21;;;;;;;64.63;42.92;;;6.90;99.90;;;;;;5059415;28;20438;-92
2022/03/24 02:49:49;;;;;;;60.22;42.30;;;6.20;99.90;;;;;;5060696;28;20047;-92
2022/03/24 02:52:15;;;;;;;63.72;43.35;;;5.80;99.90;;;;;;5060915;28;20065;-92
2022/03/24 02:54:42;;;;;;;67.70;45.78;;;5.50;99.90;;;;;;5043591;28;20105;-92
2022/03/24 02:57:08;;;;;;;65.63;42.20;;;5.20;99.90;;;;;;5060739;28;20044;-92
2022/03/24 02:59:34;;;;;;;79.95;44.88;;;6.60;99.90;;;;;;5060270;28;20047;-92
2022/03/24 03:02:06;;;;;;;64.68;43.88;;;6.90;99.90;;;;;;5076716;28;20048;-92
2022/03/24 03:04:32;;;;;;;62.85;39.47;;;5.40;99.90;;;;;;5059444;28;20135;-92
2022/03/24 03:07:02;;;;;;;63.85;42.70;;;4.90;99.90;;;;;;5060414;28;20097;-91
2022/03/24 03:09:29;;;;;;;61.90;42.97;;;3.50;99.90;;;;;;5059548;28;20048;-90
2022/03/24 03:11:56;;;;;;;62.25;41.90;;;5.30;99.90;;;;;;5060561;28;20480;-90
2022/03/24 03:14:22;;;;;;;69.50;44.28;;;3.20;99.90;;;;;;5060348;28;20391;-91
2022/03/24 03:16:48;;;;;;;65.00;41.72;;;6.80;99.90;;;;;;5059852;28;20056;-91
2022/03/24 03:19:19;;;;;;;59.85;41.45;;;5.00;99.90;;;;;;5077399;28;20052;-90
2022/03/24 03:21:48;;;;;;;58.03;39.38;;;4.90;99.90;;;;;;5060573;28;20062;-90
2022/03/24 03:24:13;;;;;;;58.60;39.50;;;6.00;99.90;;;;;;5076724;28;20071;-88
2022/03/24 03:26:39;;;;;;;61.63;39.92;;;7.50;99.90;;;;;;5075937;28;20044;-90
2022/03/24 03:29:06;;;;;;;60.92;42.63;;;5.20;99.90;;;;;;5043614;28;20044;-91
2022/03/24 03:31:34;;;;;;;62.72;42.78;;;6.00;99.90;;;;;;5077150;28;20040;-91
2022/03/24 03:34:01;;;;;;;64.65;42.47;;;5.80;99.90;;;;;;5060526;28;20131;-91
2022/03/24 03:36:28;;;;;;;66.05;43.55;;;4.80;99.90;;;;;;5060313;28;20052;-92
2022/03/24 03:38:54;;;;;;;60.75;40.85;;;7.70;99.90;;;;;;5060532;28;20083;-92
2022/03/24 03:41:23;;;;;;;62.50;42.38;;;6.90;99.90;;;;;;5060385;28;20086;-92
2022/03/24 03:43:53;;;;;;;60.72;41.25;;;8.60;99.90;;;;;;5043170;28;20044;-92
2022/03/24 03:46:18;;;;;;;63.58;41.33;;;4.90;99.90;;;;;;5060007;28;20079;-92
2022/03/24 03:48:45;;;;;;;61.80;42.60;;;7.40;99.90;;;;;;5044575;28;20071;-91
2022/03/24 03:51:12;;;;;;;63.92;42.42;;;7.10;99.90;;;;;;5061425;28;20052;-92
2022/03/24 03:53:39;;;;;;;62.22;40.88;;;5.60;99.90;;;;;;5077672;28;20104;-92
2022/03/24 03:56:07;;;;;;;59.53;40.13;;;7.10;99.90;;;;;;5061104;28;20055;-92
2022/03/24 03:58:35;;;;;;;63.50;41.67;;;4.50;99.90;;;;;;5045343;28;20135;-91
2022/03/24 04:01:02;;;;;;;61.08;42.60;;;5.90;99.90;;;;;;5077698;28;20050;-92
2022/03/24 04:03:33;;;;;;;58.67;41.25;;;5.30;99.90;;;;;;5060485;28;20121;-90
2022/03/24 04:06:04;;;;;;;64.05;40.85;;;5.20;99.90;;;;;;5059997;28;20044;-91
2022/03/24 04:08:31;;;;;;;64.32;42.67;;;4.40;99.90;;;;;;5062619;28;20513;-92
2022/03/24 04:10:57;;;;;;;63.28;41.13;;;7.30;99.90;;;;;;5063859;28;20059;-92
2022/03/24 04:13:23;;;;;;;60.45;39.80;;;5.20;99.90;;;;;;5063770;28;20105;-92
2022/03/24 04:15:54;;;;;;;61.83;41.83;;;4.20;99.90;;;;;;5063850;28;20098;-91
2022/03/24 04:18:23;;;;;;;56.67;39.75;;;4.90;99.90;;;;;;5063891;28;20036;-92
2022/03/24 04:20:49;;;;;;;58.17;39.95;;;4.40;99.90;;;;;;5063552;28;20340;-92
2022/03/24 04:23:15;;;;;;;60.75;41.33;;;4.40;99.90;;;;;;5063018;28;20135;-93
2022/03/24 04:25:41;;;;;;;59.78;40.00;;;4.10;99.90;;;;;;5046114;28;20436;-92
2022/03/24 04:28:08;;;;;;;59.80;39.17;;;4.10;99.90;;;;;;5064275;28;20140;-93
2022/03/24 04:30:34;;;;;;;60.22;40.20;;;6.20;99.90;;;;;;5063424;28;20059;-92
2022/03/24 04:33:00;;;;;;;58.22;39.00;;;5.00;99.90;;;;;;5063674;28;20043;-92
2022/03/24 04:35:27;;;;;;;58.83;40.58;;;4.10;99.90;;;;;;5063894;28;20048;-92
2022/03/24 04:37:53;;;;;;;60.97;39.88;;;4.00;99.90;;;;;;5063459;28;20055;-92
2022/03/24 04:40:20;;;;;;;63.72;39.80;;;6.50;99.90;;;;;;5080482;28;20047;-91
2022/03/24 04:42:49;;;;;;;59.92;40.72;;;6.40;99.90;;;;;;5062418;28;20085;-88
2022/03/24 04:45:16;;;;;;;67.75;42.67;;;6.20;99.90;;;;;;5078288;28;20048;-91
2022/03/24 04:47:42;;;;;;;70.15;44.03;;;6.00;99.90;;;;;;5079068;28;20073;-92
2022/03/24 04:50:09;;;;;;;66.28;41.92;;;6.60;99.90;;;;;;5062717;28;20051;-89
2022/03/24 04:52:35;;;;;;;65.03;43.40;;;2.00;99.90;;;;;;5062789;28;20052;-91
2022/03/24 04:55:04;;;;;;;67.43;41.95;;;6.60;99.90;;;;;;5046231;28;20127;-92
2022/03/24 04:57:30;;;;;;;61.70;41.08;;;3.90;99.90;;;;;;5046470;28;20054;-92
2022/03/24 04:59:59;;;;;;;62.65;41.33;;;6.20;99.90;;;;;;5062252;28;20125;-92
2022/03/24 05:02:25;;;;;;;60.90;40.85;;;3.80;99.90;;;;;;5062063;28;20058;-91
2022/03/24 05:04:52;;;;;;;60.92;39.97;;;4.80;99.90;;;;;;5079144;28;20143;-91
2022/03/24 05:07:21;;;;;;;61.30;39.85;;;6.30;99.90;;;;;;5062550;28;20056;-91
2022/03/24 05:09:50;;;;;;;60.30;40.33;;;5.80;99.90;;;;;;5062793;28;20051;-93
2022/03/24 05:12:16;;;;;;;57.80;38.80;;;5.70;99.90;;;;;;5062656;28;20048;-92
2022/03/24 05:14:42;;;;;;;57.25;38.53;;;4.80;99.90;;;;;;5062427;28;20375;-92
2022/03/24 05:17:08;;;;;;;68.65;41.17;;;3.90;99.90;;;;;;5061716;28;20079;-91
2022/03/24 05:19:34;;;;;;;57.58;37.83;;;3.80;99.90;;;;;;5077997;28;20091;-90
2022/03/24 05:22:03;;;;;;;59.35;39.85;;;3.70;99.90;;;;;;5045895;28;20130;-89
2022/03/24 05:24:29;;;;;;;58.35;39.45;;;3.90;99.90;;;;;;5061126;28;20083;-92
2022/03/24 05:26:55;;;;;;;61.72;40.92;;;2.30;99.90;;;;;;5061923;28;20036;-91
2022/03/24 05:29:21;;;;;;;59.83;39.78;;;3.80;99.90;;;;;;5061973;28;20169;-91
2022/03/24 05:31:47;;;;;;;64.45;40.65;;;3.70;99.90;;;;;;5045279;28;20052;-92
2022/03/24 05:34:12;;;;;;;65.70;39.45;;;6.00;99.90;;;;;;5045165;28;20046;-91
2022/03/24 05:36:39;;;;;;;58.70;38.47;;;6.00;99.90;;;;;;5061145;28;20463;-91
2022/03/24 05:39:05;;;;;;;55.67;39.25;;;3.80;99.90;;;;;;5076928;28;20440;-92
2022/03/24 05:41:31;;;;;;;59.25;38.60;;;6.40;99.90;;;;;;5061347;28;20123;-90
2022/03/24 05:44:03;;;;;;;63.28;40.90;;;5.20;99.90;;;;;;5078177;28;20123;-91
2022/03/24 05:46:34;;;;;;;60.85;40.83;;;3.70;99.90;;;;;;5062461;28;20055;-91
2022/03/24 05:49:00;;;;;;;62.72;42.90;;;3.90;99.90;;;;;;5061082;28;20487;-91
2022/03/24 05:51:27;;;;;;;66.55;41.13;;;6.10;99.90;;;;;;5061013;28;20056;-92
2022/03/24 05:53:56;;;;;;;73.05;44.53;;;5.60;99.90;;;;;;5061329;28;20495;-93
2022/03/24 05:56:22;;;;;;;72.72;45.00;;;4.60;99.90;;;;;;5045202;28;20115;-91
2022/03/24 05:58:48;;;;;;;68.22;45.15;;;6.50;99.90;;;;;;5061275;28;20134;-89
2022/03/24 06:01:15;;;;;;;64.03;41.17;;;6.00;99.90;;;;;;5060490;28;20473;-91
2022/03/24 06:03:44;;;;;;;69.65;44.63;;;4.40;99.90;;;;;;5077328;28;20101;-91
2022/03/24 06:06:10;;;;;;;66.55;42.70;;;5.80;99.90;;;;;;5061027;28;20483;-91
2022/03/24 06:08:43;;;;;;;68.22;44.47;;;2.50;99.90;;;;;;5078112;28;20407;-90
2022/03/24 06:11:16;;;;;;;66.93;43.85;;;4.00;99.90;;;;;;5061144;28;20091;-90
2022/03/24 06:13:42;;;;;;;67.82;44.85;;;5.10;99.90;;;;;;5061152;28;20070;-90
2022/03/24 06:16:08;;;;;;;67.05;45.00;;;4.10;99.90;;;;;;5059884;28;20048;-91
2022/03/24 06:18:39;;;;;;;70.25;44.55;;;4.40;99.90;;;;;;5044117;28;20048;-91
2022/03/24 06:21:05;;;;;;;69.88;45.05;;;4.30;99.90;;;;;;5060757;28;20166;-92
2022/03/24 06:23:34;;;;;;;69.18;44.78;;;6.50;99.90;;;;;;5045123;28;20083;-91
2022/03/24 06:26:03;;;;;;;66.90;43.05;;;4.60;99.90;;;;;;5061702;28;20055;-91
2022/03/24 06:28:29;;;;;;;70.38;46.75;;;4.40;99.90;;;;;;5044616;28;20125;-92
2022/03/24 06:30:55;;;;;;;68.13;45.67;;;4.60;99.90;;;;;;5060682;28;20483;-91
2022/03/24 06:33:21;;;;;;;71.32;48.42;;;7.30;99.90;;;;;;5061280;28;20129;-91
2022/03/24 06:35:48;;;;;;;70.18;45.85;;;6.70;99.90;;;;;;5061215;28;20122;-91
2022/03/24 06:38:15;;;;;;;77.38;48.88;;;5.60;99.90;;;;;;5061283;28;20426;-91
2022/03/24 06:40:42;;;;;;;79.97;51.00;;;7.30;99.90;;;;;;5044209;28;20097;-88
2022/03/24 06:43:09;;;;;;;81.55;52.65;;;5.40;99.90;;;;;;5076688;28;20046;-91
2022/03/24 06:45:36;;;;;;;81.13;54.25;;;7.90;99.90;;;;;;5061088;28;20131;-91
2022/03/24 06:48:04;;;;;;;84.82;56.38;;;5.40;99.90;;;;;;5061141;28;20048;-91
2022/03/24 06:50:29;;;;;;;84.97;56.03;;;4.20;99.90;;;;;;5061244;28;20051;-92
2022/03/24 06:52:55;;;;;;;86.82;55.75;;;6.10;99.90;;;;;;5060920;28;20081;-92
2022/03/24 06:55:21;;;;;;;80.38;53.95;;;8.10;99.90;;;;;;5044295;28;20059;-92
2022/03/24 06:57:47;;;;;;;80.20;53.90;;;8.00;99.90;;;;;;5076952;28;20131;-92
2022/03/24 07:00:15;;;;;;;86.55;57.80;;;6.10;99.90;;;;;;5060343;28;20048;-92
2022/03/24 07:02:45;;;;;;;81.85;56.58;;;6.50;99.90;;;;;;5061020;28;20083;-92
2022/03/24 07:05:12;;;;;;;82.90;55.93;;;6.40;99.90;;;;;;5061803;28;20052;-92
2022/03/24 07:07:38;;;;;;;77.97;56.08;;;6.50;99.90;;;;;;5077746;28;20162;-92
2022/03/24 07:10:05;;;;;;;81.55;55.60;;;6.80;99.90;;;;;;5045462;28;20044;-92
2022/03/24 07:12:31;;;;;;;84.60;55.28;;;6.80;99.90;;;;;;5061712;28;20028;-92
2022/03/24 07:14:57;;;;;;;82.03;54.67;;;7.10;99.90;;;;;;5061262;28;20035;-92
2022/03/24 07:17:23;;;;;;;83.20;56.08;;;7.20;99.90;;;;;;5060580;28;20056;-89
2022/03/24 07:19:49;;;;;;;86.05;56.38;;;7.80;99.90;;;;;;5060691;28;20051;-92
2022/03/24 07:22:16;;;;;;;80.78;57.28;;;7.50;99.90;;;;;;5062072;28;20288;-92
2022/03/24 07:24:43;;;;;;;76.45;53.40;;;8.70;99.90;;;;;;5062338;28;20040;-92
2022/03/24 07:27:10;;;;;;;77.18;51.83;;;7.70;99.90;;;;;;5062411;28;20103;-92
2022/03/24 07:29:35;;;;;;;74.18;52.78;;;8.60;99.90;;;;;;5062291;28;20076;-92
2022/03/24 07:32:08;;;;;;;71.15;50.67;;;7.90;99.90;;;;;;5063031;28;20054;-93
2022/03/24 07:34:35;;;;;;;72.65;50.10;;;8.00;99.90;;;;;;5061905;28;20083;-92
2022/03/24 07:37:04;;;;;;;71.38;51.10;;;8.10;99.90;;;;;;5077318;28;20075;-92
2022/03/24 07:39:31;;;;;;;76.60;51.60;;;7.30;99.90;;;;;;5061508;28;20062;-92
2022/03/24 07:41:57;;;;;;;66.90;47.67;;;9.00;99.90;;;;;;5079100;28;20044;-92
2022/03/24 07:44:22;;;;;;;72.97;49.75;;;9.60;99.90;;;;;;5050525;28;20504;-91
2022/03/24 07:46:48;;;;;;;68.82;48.15;;;8.80;99.90;;;;;;5065187;28;20044;-92
2022/03/24 07:49:15;;;;;;;70.55;48.65;;;8.90;99.90;;;;;;5049249;28;20051;-93
2022/03/24 07:51:41;;;;;;;70.78;47.13;;;9.10;99.90;;;;;;5082227;28;20032;-91
2022/03/24 07:54:09;;;;;;;64.95;47.25;;;9.20;99.90;;;;;;5048544;28;20075;-91
2022/03/24 07:56:36;;;;;;;69.10;47.70;;;9.30;99.90;;;;;;5046765;28;20123;-91
2022/03/24 07:59:02;;;;;;;63.42;44.80;;;9.30;99.90;;;;;;5064584;28;20135;-92
2022/03/24 08:01:33;;;;;;;64.28;45.72;;;10.10;99.90;;;;;;5081892;28;20479;-92
2022/03/24 08:04:06;;;;;;;60.70;44.45;;;9.80;99.90;;;;;;5049384;28;20047;-91
2022/03/24 08:06:35;;;;;;;67.57;47.60;;;10.80;99.90;;;;;;5064825;28;20134;-91
2022/03/24 08:09:01;;;;;;;70.15;46.25;;;10.40;99.90;;;;;;5064852;28;20395;-91
2022/03/24 08:11:26;;;;;;;71.78;46.28;;;10.60;99.90;;;;;;5065084;28;20066;-91
2022/03/24 08:13:57;;;;;;;60.28;41.00;;;11.20;99.90;;;;;;5064921;28;20906;-91
2022/03/24 08:16:27;;;;;;;59.67;44.10;;;10.60;99.90;;;;;;5063796;28;20059;-92
2022/03/24 08:18:56;;;;;;;56.38;40.22;;;10.60;99.90;;;;;;5080601;28;20472;-91
2022/03/24 08:21:22;;;;;;;53.97;37.20;;;11.10;99.90;;;;;;5081567;28;20044;-90
2022/03/24 08:23:48;;;;;;;49.08;33.85;;;10.90;99.90;;;;;;5064149;28;20047;-91
2022/03/24 08:26:14;;;;;;;49.47;35.78;;;11.00;99.90;;;;;;5081407;28;20040;-92
2022/03/24 08:28:40;;;;;;;59.38;38.92;;;11.30;99.90;;;;;;5064549;28;20058;-91
2022/03/24 08:31:06;;;;;;;50.63;36.33;;;11.10;99.90;;;;;;5047594;28;20063;-91
2022/03/24 08:33:32;;;;;;;52.85;35.05;;;11.60;99.90;;;;;;5064122;28;20048;-91
2022/03/24 08:35:58;;;;;;;51.92;35.80;;;11.50;99.90;;;;;;5062873;28;20054;-89
2022/03/24 08:38:27;;;;;;;52.20;36.50;;;12.40;99.90;;;;;;5063263;28;20044;-91
2022/03/24 08:40:53;;;;;;;47.40;35.42;;;11.80;99.90;;;;;;5047872;28;20135;-91
2022/03/24 08:43:19;;;;;;;49.25;33.45;;;12.00;99.90;;;;;;5080861;28;20455;-91
2022/03/24 08:45:45;;;;;;;48.28;32.50;;;12.60;99.90;;;;;;5047795;28;20051;-91
2022/03/24 08:48:11;;;;;;;46.30;32.15;;;12.00;99.90;;;;;;5048107;28;20123;-91
2022/03/24 08:50:37;;;;;;;47.42;31.83;;;12.50;99.90;;;;;;5080982;28;20530;-91
2022/03/24 08:53:04;;;;;;;45.67;33.65;;;12.30;99.90;;;;;;5063167;28;20134;-91
2022/03/24 08:55:32;;;;;;;48.80;35.78;;;11.60;99.90;;;;;;5063972;28;20471;-92
2022/03/24 08:57:59;;;;;;;45.78;33.53;;;12.80;99.90;;;;;;5064962;28;20510;-92
2022/03/24 09:00:24;;;;;;;47.15;34.05;;;13.00;99.90;;;;;;5064050;28;20071;-92
2022/03/24 09:02:53;;;;;;;47.60;33.30;;;12.80;99.90;;;;;;5064230;28;20055;-92
2022/03/24 09:05:18;;;;;;;50.22;33.33;;;12.80;99.90;;;;;;5064456;28;20135;-92
2022/03/24 09:07:45;;;;;;;45.03;32.40;;;11.20;99.90;;;;;;5048653;28;20059;-93
2022/03/24 09:10:12;;;;;;;44.78;32.53;;;13.10;99.90;;;;;;5048475;28;20039;-92
2022/03/24 09:12:40;;;;;;;48.17;34.10;;;13.30;99.90;;;;;;5079548;28;20043;-90
2022/03/24 09:15:08;;;;;;;45.67;34.05;;;13.50;99.90;;;;;;5063584;28;20112;-92
2022/03/24 09:17:35;;;;;;;46.75;33.90;;;13.50;99.90;;;;;;5063581;28;20185;-92
2022/03/24 09:20:23;;;;;;;53.20;32.25;;;13.90;99.90;;;;;;5064779;28;20511;-90
2022/03/24 09:22:49;;;;;;;45.28;30.85;;;14.00;99.90;;;;;;5080734;28;20049;-92
2022/03/24 09:25:16;;;;;;;42.42;28.10;;;13.90;99.90;;;;;;5047674;28;20134;-92
2022/03/24 09:27:43;;;;;;;45.17;30.38;;;13.90;99.90;;;;;;5065391;28;20139;-92
2022/03/24 09:30:12;;;;;;;47.38;31.05;;;12.90;99.90;;;;;;5065895;28;20052;-93
2022/03/24 09:32:38;;;;;;;43.08;29.63;;;14.00;99.90;;;;;;5064802;28;20048;-91
2022/03/24 09:35:06;;;;;;;44.30;32.67;;;14.10;99.90;;;;;;5063791;28;20052;-94
2022/03/24 09:37:33;;;;;;;49.92;32.65;;;12.60;99.90;;;;;;5061657;28;20076;-92
2022/03/24 09:40:02;;;;;;;45.40;31.40;;;14.30;99.90;;;;;;5046810;28;20058;-93
2022/03/24 09:42:29;;;;;;;48.10;31.75;;;13.30;99.90;;;;;;5064002;28;20475;-93
2022/03/24 09:45:00;;;;;;;43.25;31.67;;;14.50;99.90;;;;;;5080069;28;20055;-92
2022/03/24 09:47:27;;;;;;;44.47;32.85;;;14.60;99.90;;;;;;5080041;28;20136;-91
2022/03/24 09:49:58;;;;;;;42.78;31.38;;;14.80;99.90;;;;;;5080202;28;20044;-92
2022/03/24 09:52:25;;;;;;;42.33;31.98;;;15.10;99.90;;;;;;5063723;28;20098;-93
2022/03/24 09:54:52;;;;;;;44.40;31.85;;;15.30;99.90;;;;;;5062840;28;20061;-92
2022/03/24 09:57:17;;;;;;;43.65;33.00;;;15.20;99.90;;;;;;5062128;28;20139;-89
2022/03/24 09:59:45;;;;;;;46.10;33.35;;;15.20;99.90;;;;;;5061118;28;20106;-93
2022/03/24 10:02:12;;;;;;;44.28;32.03;;;15.30;99.90;;;;;;5062003;28;20056;-92
2022/03/24 10:05:03;;;;;;;48.63;32.53;;;15.40;99.90;;;;;;5061715;28;20047;-90
2022/03/24 10:07:47;;;;;;;45.03;31.65;;;15.60;99.90;;;;;;5060988;28;20059;-90
2022/03/24 10:10:27;;;;;;;47.65;33.72;;;15.70;99.90;;;;;;5061193;28;20139;-92
2022/03/24 10:12:56;;;;;;;48.30;33.05;;;15.90;99.90;;;;;;5062096;28;20051;-88
2022/03/24 10:15:22;;;;;;;45.63;32.17;;;15.90;99.90;;;;;;5029198;28;20051;-92
2022/03/24 10:17:53;;;;;;;45.28;31.98;;;16.00;99.90;;;;;;5061518;28;20082;-93
2022/03/24 10:20:20;;;;;;;42.72;32.03;;;17.60;99.90;;;;;;5078151;28;20562;-93
2022/03/24 10:22:57;;;;;;;44.42;32.70;;;16.40;99.90;;;;;;5044640;28;20052;-92
2022/03/24 10:25:25;;;;;;;44.08;32.85;;;16.40;99.90;;;;;;5061058;28;20048;-92
2022/03/24 10:28:13;;;;;;;46.90;33.33;;;16.50;99.90;;;;;;5061331;28;20119;-92
2022/03/24 10:30:54;;;;;;;51.33;32.92;;;17.00;99.90;;;;;;5060828;28;20048;-93
2022/03/24 10:33:40;;;;;;;44.03;30.65;;;16.60;99.90;;;;;;5061088;28;20337;-93
2022/03/24 10:36:14;;;;;;;40.78;30.02;;;16.80;99.90;;;;;;5061084;28;20055;-91
2022/03/24 10:38:43;;;;;;;41.00;28.50;;;16.90;99.90;;;;;;5077530;28;20055;-93
2022/03/24 10:41:29;;;;;;;40.33;30.90;;;17.20;99.90;;;;;;5061839;28;20052;-93
2022/03/24 10:43:58;;;;;;;42.58;30.23;;;17.20;99.90;;;;;;5055516;28;20483;-92
2022/03/24 10:46:30;;;;;;;42.20;29.85;;;17.20;99.90;;;;;;5062715;28;20050;-93
2022/03/24 10:48:57;;;;;;;38.75;27.70;;;17.20;99.90;;;;;;5062139;28;20067;-93
2022/03/24 10:51:31;;;;;;;45.38;32.00;;;17.40;99.90;;;;;;5062176;28;20083;-93
2022/03/24 10:54:24;;;;;;;42.97;29.50;;;18.90;99.90;;;;;;5061648;28;20048;-91
2022/03/24 10:57:00;;;;;;;42.85;31.92;;;17.50;99.20;;;;;;5061345;28;20079;-94
2022/03/24 10:59:29;;;;;;;47.40;32.58;;;17.50;98.80;;;;;;5079010;28;20087;-93
2022/03/24 11:01:57;;;;;;;45.72;32.47;;;17.50;99.70;;;;;;5061693;28;20085;-93
2022/03/24 11:04:23;;;;;;;44.72;31.35;;;17.50;99.60;;;;;;5061455;28;20043;-93
2022/03/24 11:06:53;;;;;;;41.75;30.15;;;17.60;99.80;;;;;;5045830;28;20056;-92
2022/03/24 11:09:33;;;;;;;47.50;30.42;;;18.00;97.80;;;;;;5044849;28;20048;-92
2022/03/24 11:12:28;;;;;;;46.78;33.10;;;17.90;98.40;;;;;;5055660;28;20040;-93
2022/03/24 11:14:57;;;;;;;41.13;28.63;;;17.90;98.40;;;;;;5078206;28;20043;-91
2022/03/24 11:17:29;;;;;;;34.92;27.05;;;17.30;98.20;;;;;;5064417;28;20060;-93
2022/03/24 11:20:07;;;;;;;34.30;24.73;;;18.50;98.30;;;;;;5064764;28;20570;-95
2022/03/24 11:22:55;;;;;;;43.03;28.98;;;18.40;95.80;;;;;;5065543;28;20091;-92
2022/03/24 11:25:22;;;;;;;37.95;27.05;;;18.50;96.10;;;;;;5065247;28;20056;-93
2022/03/24 11:27:53;;;;;;;44.53;28.35;;;18.20;95.40;;;;;;5065652;28;20518;-92
2022/03/24 11:30:21;;;;;;;39.88;27.77;;;18.40;96.10;;;;;;5064976;28;20112;-94
2022/03/24 11:32:52;;;;;;;36.70;27.50;;;18.40;95.90;;;;;;5063988;28;20044;-92
2022/03/24 11:35:19;;;;;;;39.53;29.45;;;18.40;94.90;;;;;;5065073;28;20040;-92
2022/03/24 11:37:45;;;;;;;41.55;28.40;;;18.40;95.20;;;;;;5065292;28;20186;-93
2022/03/24 11:40:17;;;;;;;36.85;25.73;;;16.80;95.20;;;;;;5064930;28;20097;-93
2022/03/24 11:42:47;;;;;;;36.78;26.13;;;19.80;95.00;;;;;;5064537;28;20081;-92
2022/03/24 11:45:29;;;;;;;35.75;25.90;;;18.70;94.10;;;;;;5065359;28;20044;-92
2022/03/24 11:48:05;;;;;;;35.28;27.50;;;19.20;94.10;;;;;;5064845;28;20081;-92
2022/03/24 11:50:36;;;;;;;39.65;27.75;;;19.20;93.00;;;;;;5064582;28;20127;-91
2022/03/24 11:53:17;;;;;;;37.20;26.20;;;19.30;92.60;;;;;;5064650;28;20044;-93
2022/03/24 11:56:01;;;;;;;36.72;28.42;;;19.80;92.50;;;;;;5066245;28;20483;-92
2022/03/24 11:58:39;;;;;;;36.13;26.27;;;19.70;91.70;;;;;;5075272;28;20110;-93
2022/03/24 12:01:33;;;;;;;33.72;24.85;;;19.60;92.30;;;;;;5073302;28;20055;-93
2022/03/24 12:04:09;;;;;;;38.28;22.55;;;19.80;91.50;;;;;;5065991;28;20048;-93
2022/03/24 12:06:43;;;;;;;36.97;22.83;;;18.60;90.50;;;;;;5067589;28;20087;-91
2022/03/24 12:09:25;;;;;;;39.22;24.42;;;19.70;89.50;;;;;;5067771;28;20048;-91
2022/03/24 12:12:03;;;;;;;40.42;23.73;;;19.60;88.00;;;;;;5063328;28;20051;-90
2022/03/24 12:14:32;;;;;;;34.33;25.00;;;20.70;88.20;;;;;;5069880;28;20069;-93
2022/03/24 12:17:15;;;;;;;30.65;24.27;;;19.90;90.70;;;;;;5075401;28;20052;-94
2022/03/24 12:19:50;;;;;;;34.78;25.02;;;20.00;88.40;;;;;;5082502;28;20052;-93
2022/03/24 12:22:24;;;;;;;34.58;23.58;;;20.10;87.60;;;;;;5072600;28;20090;-93
2022/03/24 12:25:14;;;;;;;30.45;22.42;;;21.00;88.90;;;;;;5067043;28;20040;-91
2022/03/24 12:28:04;;;;;;;31.20;22.17;;;22.40;85.90;;;;;;5049265;28;20138;-93
2022/03/24 12:31:04;;;;;;;27.15;21.33;;;20.70;85.70;;;;;;5064618;28;20463;-94
2022/03/24 12:33:40;;;;;;;32.20;23.13;;;20.90;82.70;;;;;;5061622;28;20052;-92
2022/03/24 12:36:07;;;;;;;31.80;22.13;;;21.20;85.30;;;;;;5066578;28;20082;-90
2022/03/24 12:38:33;;;;;;;31.98;21.85;;;23.20;85.40;;;;;;5064943;28;20043;-93
2022/03/24 12:41:08;;;;;;;25.88;20.58;;;21.50;84.70;;;;;;5062685;28;20040;-92